sensor_id;sensor_type;location;lat;lon;timestamp;P1;durP1;ratioP1;P2;durP2;ratioP2
36009;SDS011;22076;52.182;5.404;2022-11-20T00:00:02;28.60;;;14.43;;
36009;SDS011;22076;52.182;5.404;2022-11-20T00:02:29;29.08;;;16.05;;
36009;SDS011;22076;52.182;5.404;2022-11-20T00:04:55;29.27;;;15.98;;
36009;SDS011;22076;52.182;5.404;2022-11-20T00:07:22;31.15;;;15.63;;
36009;SDS011;22076;52.182;5.404;2022-11-20T00:09:49;29.58;;;15.63;;
36009;SDS011;22076;52.182;5.404;2022-11-20T00:12:15;31.67;;;16.67;;
36009;SDS011;22076;52.182;5.404;2022-11-20T00:14:42;27.30;;;15.30;;
36009;SDS011;22076;52.182;5.404;2022-11-20T00:17:10;31.35;;;16.65;;
36009;SDS011;22076;52.182;5.404;2022-11-20T00:19:36;29.90;;;16.95;;
36009;SDS011;22076;52.182;5.404;2022-11-20T00:22:03;30.58;;;17.40;;
36009;SDS011;22076;52.182;5.404;2022-11-20T00:24:29;30.13;;;16.15;;
36009;SDS011;22076;52.182;5.404;2022-11-20T00:26:55;29.83;;;16.23;;
36009;SDS011;22076;52.182;5.404;2022-11-20T00:29:22;33.22;;;16.98;;
36009;SDS011;22076;52.182;5.404;2022-11-20T00:31:49;29.25;;;16.90;;
36009;SDS011;22076;52.182;5.404;2022-11-20T00:34:16;29.75;;;16.23;;
36009;SDS011;22076;52.182;5.404;2022-11-20T00:36:43;29.65;;;15.38;;
36009;SDS011;22076;52.182;5.404;2022-11-20T00:39:09;31.02;;;15.75;;
36009;SDS011;22076;52.182;5.404;2022-11-20T00:41:36;28.25;;;15.23;;
36009;SDS011;22076;52.182;5.404;2022-11-20T00:44:02;29.25;;;15.80;;
36009;SDS011;22076;52.182;5.404;2022-11-20T00:46:29;25.60;;;14.80;;
36009;SDS011;22076;52.182;5.404;2022-11-20T00:48:55;26.38;;;14.32;;
36009;SDS011;22076;52.182;5.404;2022-11-20T00:51:24;26.13;;;14.93;;
36009;SDS011;22076;52.182;5.404;2022-11-20T00:53:54;25.30;;;15.40;;
36009;SDS011;22076;52.182;5.404;2022-11-20T00:56:21;28.42;;;14.77;;
36009;SDS011;22076;52.182;5.404;2022-11-20T00:58:48;31.83;;;16.27;;
36009;SDS011;22076;52.182;5.404;2022-11-20T01:01:16;30.65;;;16.48;;
36009;SDS011;22076;52.182;5.404;2022-11-20T01:03:44;27.92;;;14.80;;
36009;SDS011;22076;52.182;5.404;2022-11-20T01:06:11;27.10;;;14.88;;
36009;SDS011;22076;52.182;5.404;2022-11-20T01:08:40;28.52;;;14.68;;
36009;SDS011;22076;52.182;5.404;2022-11-20T01:11:08;27.27;;;14.40;;
36009;SDS011;22076;52.182;5.404;2022-11-20T01:13:36;26.80;;;14.07;;
36009;SDS011;22076;52.182;5.404;2022-11-20T01:16:03;26.05;;;14.00;;
36009;SDS011;22076;52.182;5.404;2022-11-20T01:18:30;27.75;;;14.23;;
36009;SDS011;22076;52.182;5.404;2022-11-20T01:20:59;26.15;;;14.52;;
36009;SDS011;22076;52.182;5.404;2022-11-20T01:23:27;23.20;;;12.85;;
36009;SDS011;22076;52.182;5.404;2022-11-20T01:25:58;26.48;;;14.10;;
36009;SDS011;22076;52.182;5.404;2022-11-20T01:28:25;26.17;;;13.60;;
36009;SDS011;22076;52.182;5.404;2022-11-20T01:30:52;27.40;;;14.93;;
36009;SDS011;22076;52.182;5.404;2022-11-20T01:33:18;23.20;;;13.27;;
36009;SDS011;22076;52.182;5.404;2022-11-20T01:35:45;24.63;;;13.38;;
36009;SDS011;22076;52.182;5.404;2022-11-20T01:38:11;23.80;;;13.32;;
36009;SDS011;22076;52.182;5.404;2022-11-20T01:40:38;25.95;;;13.40;;
36009;SDS011;22076;52.182;5.404;2022-11-20T01:43:09;25.90;;;13.60;;
36009;SDS011;22076;52.182;5.404;2022-11-20T01:45:56;23.48;;;13.63;;
36009;SDS011;22076;52.182;5.404;2022-11-20T01:48:25;24.38;;;13.63;;
36009;SDS011;22076;52.182;5.404;2022-11-20T01:50:53;21.95;;;12.80;;
36009;SDS011;22076;52.182;5.404;2022-11-20T01:53:21;23.10;;;12.75;;
36009;SDS011;22076;52.182;5.404;2022-11-20T01:55:50;27.40;;;13.80;;
36009;SDS011;22076;52.182;5.404;2022-11-20T01:58:20;25.80;;;13.73;;
36009;SDS011;22076;52.182;5.404;2022-11-20T02:00:51;23.00;;;12.93;;
36009;SDS011;22076;52.182;5.404;2022-11-20T02:03:19;22.55;;;12.13;;
36009;SDS011;22076;52.182;5.404;2022-11-20T02:05:46;22.83;;;13.15;;
36009;SDS011;22076;52.182;5.404;2022-11-20T02:08:16;27.17;;;14.40;;
36009;SDS011;22076;52.182;5.404;2022-11-20T02:10:43;24.23;;;13.35;;
36009;SDS011;22076;52.182;5.404;2022-11-20T02:13:10;25.33;;;13.32;;
36009;SDS011;22076;52.182;5.404;2022-11-20T02:15:55;25.45;;;13.95;;
36009;SDS011;22076;52.182;5.404;2022-11-20T02:18:22;25.17;;;13.43;;
36009;SDS011;22076;52.182;5.404;2022-11-20T02:20:50;26.13;;;12.88;;
36009;SDS011;22076;52.182;5.404;2022-11-20T02:23:21;25.38;;;13.43;;
36009;SDS011;22076;52.182;5.404;2022-11-20T02:25:52;23.77;;;13.43;;
36009;SDS011;22076;52.182;5.404;2022-11-20T02:28:18;23.88;;;12.38;;
36009;SDS011;22076;52.182;5.404;2022-11-20T02:30:46;23.48;;;13.05;;
36009;SDS011;22076;52.182;5.404;2022-11-20T02:33:12;27.92;;;14.25;;
36009;SDS011;22076;52.182;5.404;2022-11-20T02:35:40;26.10;;;14.43;;
36009;SDS011;22076;52.182;5.404;2022-11-20T02:38:10;25.83;;;13.00;;
36009;SDS011;22076;52.182;5.404;2022-11-20T02:40:36;23.52;;;13.05;;
36009;SDS011;22076;52.182;5.404;2022-11-20T02:43:04;24.77;;;14.05;;
36009;SDS011;22076;52.182;5.404;2022-11-20T02:45:31;21.50;;;12.30;;
36009;SDS011;22076;52.182;5.404;2022-11-20T02:47:57;30.20;;;15.35;;
36009;SDS011;22076;52.182;5.404;2022-11-20T02:50:24;25.63;;;13.43;;
36009;SDS011;22076;52.182;5.404;2022-11-20T02:52:50;22.70;;;13.20;;
36009;SDS011;22076;52.182;5.404;2022-11-20T02:55:17;23.52;;;12.32;;
36009;SDS011;22076;52.182;5.404;2022-11-20T02:57:43;26.52;;;13.13;;
36009;SDS011;22076;52.182;5.404;2022-11-20T03:00:12;23.38;;;12.80;;
36009;SDS011;22076;52.182;5.404;2022-11-20T03:02:39;25.20;;;13.35;;
36009;SDS011;22076;52.182;5.404;2022-11-20T03:05:06;22.25;;;12.40;;
36009;SDS011;22076;52.182;5.404;2022-11-20T03:07:33;22.75;;;13.60;;
36009;SDS011;22076;52.182;5.404;2022-11-20T03:09:59;25.20;;;13.68;;
36009;SDS011;22076;52.182;5.404;2022-11-20T03:12:26;26.05;;;12.48;;
36009;SDS011;22076;52.182;5.404;2022-11-20T03:14:52;24.70;;;13.02;;
36009;SDS011;22076;52.182;5.404;2022-11-20T03:17:20;25.17;;;13.02;;
36009;SDS011;22076;52.182;5.404;2022-11-20T03:19:46;23.02;;;12.95;;
36009;SDS011;22076;52.182;5.404;2022-11-20T03:22:13;22.98;;;13.10;;
36009;SDS011;22076;52.182;5.404;2022-11-20T03:24:40;26.00;;;12.95;;
36009;SDS011;22076;52.182;5.404;2022-11-20T03:27:06;23.10;;;13.07;;
36009;SDS011;22076;52.182;5.404;2022-11-20T03:29:32;20.27;;;12.30;;
36009;SDS011;22076;52.182;5.404;2022-11-20T03:32:01;22.45;;;12.88;;
36009;SDS011;22076;52.182;5.404;2022-11-20T03:34:28;24.73;;;13.07;;
36009;SDS011;22076;52.182;5.404;2022-11-20T03:36:55;24.65;;;13.38;;
36009;SDS011;22076;52.182;5.404;2022-11-20T03:39:21;22.02;;;12.25;;
36009;SDS011;22076;52.182;5.404;2022-11-20T03:41:48;22.33;;;13.10;;
36009;SDS011;22076;52.182;5.404;2022-11-20T03:44:14;22.08;;;12.77;;
36009;SDS011;22076;52.182;5.404;2022-11-20T03:46:40;24.20;;;13.15;;
36009;SDS011;22076;52.182;5.404;2022-11-20T03:49:07;24.15;;;12.73;;
36009;SDS011;22076;52.182;5.404;2022-11-20T03:51:35;23.65;;;13.55;;
36009;SDS011;22076;52.182;5.404;2022-11-20T03:54:02;23.30;;;13.18;;
36009;SDS011;22076;52.182;5.404;2022-11-20T03:56:30;25.50;;;13.60;;
36009;SDS011;22076;52.182;5.404;2022-11-20T03:58:58;27.92;;;14.13;;
36009;SDS011;22076;52.182;5.404;2022-11-20T04:01:25;26.65;;;13.38;;
36009;SDS011;22076;52.182;5.404;2022-11-20T04:03:53;26.88;;;13.70;;
36009;SDS011;22076;52.182;5.404;2022-11-20T04:06:21;23.30;;;12.27;;
36009;SDS011;22076;52.182;5.404;2022-11-20T04:08:50;22.85;;;13.13;;
36009;SDS011;22076;52.182;5.404;2022-11-20T04:11:17;23.48;;;12.65;;
36009;SDS011;22076;52.182;5.404;2022-11-20T04:13:45;24.52;;;12.98;;
36009;SDS011;22076;52.182;5.404;2022-11-20T04:16:13;21.77;;;11.95;;
36009;SDS011;22076;52.182;5.404;2022-11-20T04:18:40;24.90;;;12.02;;
36009;SDS011;22076;52.182;5.404;2022-11-20T04:21:07;23.63;;;12.82;;
36009;SDS011;22076;52.182;5.404;2022-11-20T04:23:33;34.08;;;16.45;;
36009;SDS011;22076;52.182;5.404;2022-11-20T04:26:02;23.38;;;13.27;;
36009;SDS011;22076;52.182;5.404;2022-11-20T04:28:29;24.17;;;13.70;;
36009;SDS011;22076;52.182;5.404;2022-11-20T04:31:01;31.10;;;14.13;;
36009;SDS011;22076;52.182;5.404;2022-11-20T04:33:28;23.55;;;12.75;;
36009;SDS011;22076;52.182;5.404;2022-11-20T04:35:55;25.52;;;12.43;;
36009;SDS011;22076;52.182;5.404;2022-11-20T04:38:21;24.15;;;12.00;;
36009;SDS011;22076;52.182;5.404;2022-11-20T04:40:48;22.58;;;11.77;;
36009;SDS011;22076;52.182;5.404;2022-11-20T04:43:15;23.77;;;13.07;;
36009;SDS011;22076;52.182;5.404;2022-11-20T04:45:42;23.20;;;12.65;;
36009;SDS011;22076;52.182;5.404;2022-11-20T04:48:09;25.15;;;12.85;;
36009;SDS011;22076;52.182;5.404;2022-11-20T04:50:39;28.40;;;13.75;;
36009;SDS011;22076;52.182;5.404;2022-11-20T04:53:05;29.65;;;16.83;;
36009;SDS011;22076;52.182;5.404;2022-11-20T04:55:32;26.15;;;12.30;;
36009;SDS011;22076;52.182;5.404;2022-11-20T04:57:58;22.20;;;12.52;;
36009;SDS011;22076;52.182;5.404;2022-11-20T05:00:26;23.50;;;13.93;;
36009;SDS011;22076;52.182;5.404;2022-11-20T05:02:53;24.60;;;12.43;;
36009;SDS011;22076;52.182;5.404;2022-11-20T05:05:19;24.38;;;13.13;;
36009;SDS011;22076;52.182;5.404;2022-11-20T05:07:46;21.85;;;12.32;;
36009;SDS011;22076;52.182;5.404;2022-11-20T05:10:12;28.75;;;14.82;;
36009;SDS011;22076;52.182;5.404;2022-11-20T05:12:39;24.77;;;13.43;;
36009;SDS011;22076;52.182;5.404;2022-11-20T05:15:06;25.45;;;13.43;;
36009;SDS011;22076;52.182;5.404;2022-11-20T05:17:34;25.75;;;13.82;;
36009;SDS011;22076;52.182;5.404;2022-11-20T05:20:00;24.25;;;13.48;;
36009;SDS011;22076;52.182;5.404;2022-11-20T05:22:27;31.63;;;15.25;;
36009;SDS011;22076;52.182;5.404;2022-11-20T05:24:53;33.55;;;14.15;;
36009;SDS011;22076;52.182;5.404;2022-11-20T05:27:20;20.80;;;12.65;;
36009;SDS011;22076;52.182;5.404;2022-11-20T05:29:46;26.23;;;13.75;;
36009;SDS011;22076;52.182;5.404;2022-11-20T05:32:13;24.80;;;13.50;;
36009;SDS011;22076;52.182;5.404;2022-11-20T05:34:40;26.05;;;14.35;;
36009;SDS011;22076;52.182;5.404;2022-11-20T05:37:07;26.52;;;14.02;;
36009;SDS011;22076;52.182;5.404;2022-11-20T05:39:33;25.02;;;13.27;;
36009;SDS011;22076;52.182;5.404;2022-11-20T05:42:00;27.48;;;15.32;;
36009;SDS011;22076;52.182;5.404;2022-11-20T05:44:44;21.90;;;12.80;;
36009;SDS011;22076;52.182;5.404;2022-11-20T05:47:10;22.83;;;12.43;;
36009;SDS011;22076;52.182;5.404;2022-11-20T05:49:37;23.23;;;12.48;;
36009;SDS011;22076;52.182;5.404;2022-11-20T05:52:05;27.88;;;14.38;;
36009;SDS011;22076;52.182;5.404;2022-11-20T05:54:31;23.92;;;13.02;;
36009;SDS011;22076;52.182;5.404;2022-11-20T05:56:58;26.92;;;13.25;;
36009;SDS011;22076;52.182;5.404;2022-11-20T05:59:24;26.85;;;14.32;;
36009;SDS011;22076;52.182;5.404;2022-11-20T06:01:51;24.95;;;13.27;;
36009;SDS011;22076;52.182;5.404;2022-11-20T06:04:17;34.08;;;14.50;;
36009;SDS011;22076;52.182;5.404;2022-11-20T06:06:44;26.73;;;13.68;;
36009;SDS011;22076;52.182;5.404;2022-11-20T06:09:12;28.08;;;12.55;;
36009;SDS011;22076;52.182;5.404;2022-11-20T06:11:38;23.50;;;13.73;;
36009;SDS011;22076;52.182;5.404;2022-11-20T06:14:05;22.38;;;13.48;;
36009;SDS011;22076;52.182;5.404;2022-11-20T06:16:31;26.42;;;13.45;;
36009;SDS011;22076;52.182;5.404;2022-11-20T06:18:58;27.27;;;14.77;;
36009;SDS011;22076;52.182;5.404;2022-11-20T06:21:24;23.55;;;13.00;;
36009;SDS011;22076;52.182;5.404;2022-11-20T06:23:51;26.67;;;14.48;;
36009;SDS011;22076;52.182;5.404;2022-11-20T06:26:21;25.23;;;13.82;;
36009;SDS011;22076;52.182;5.404;2022-11-20T06:28:48;26.85;;;14.50;;
36009;SDS011;22076;52.182;5.404;2022-11-20T06:31:16;32.03;;;15.18;;
36009;SDS011;22076;52.182;5.404;2022-11-20T06:33:43;32.92;;;17.00;;
36009;SDS011;22076;52.182;5.404;2022-11-20T06:36:11;25.52;;;13.23;;
36009;SDS011;22076;52.182;5.404;2022-11-20T06:38:39;28.35;;;13.27;;
36009;SDS011;22076;52.182;5.404;2022-11-20T06:41:06;29.27;;;15.40;;
36009;SDS011;22076;52.182;5.404;2022-11-20T06:43:34;27.92;;;14.40;;
36009;SDS011;22076;52.182;5.404;2022-11-20T06:46:01;26.88;;;12.75;;
36009;SDS011;22076;52.182;5.404;2022-11-20T06:48:28;28.17;;;13.57;;
36009;SDS011;22076;52.182;5.404;2022-11-20T06:50:55;26.73;;;13.50;;
36009;SDS011;22076;52.182;5.404;2022-11-20T06:53:21;28.50;;;14.25;;
36009;SDS011;22076;52.182;5.404;2022-11-20T06:55:48;30.88;;;15.73;;
36009;SDS011;22076;52.182;5.404;2022-11-20T06:58:15;26.23;;;13.48;;
36009;SDS011;22076;52.182;5.404;2022-11-20T07:00:43;30.02;;;16.88;;
36009;SDS011;22076;52.182;5.404;2022-11-20T07:03:10;25.85;;;14.30;;
36009;SDS011;22076;52.182;5.404;2022-11-20T07:05:37;26.73;;;14.77;;
36009;SDS011;22076;52.182;5.404;2022-11-20T07:08:04;23.98;;;12.65;;
36009;SDS011;22076;52.182;5.404;2022-11-20T07:10:31;29.90;;;15.43;;
36009;SDS011;22076;52.182;5.404;2022-11-20T07:12:57;28.42;;;14.13;;
36009;SDS011;22076;52.182;5.404;2022-11-20T07:15:24;23.25;;;13.32;;
36009;SDS011;22076;52.182;5.404;2022-11-20T07:17:52;25.73;;;14.13;;
36009;SDS011;22076;52.182;5.404;2022-11-20T07:20:19;27.25;;;14.00;;
36009;SDS011;22076;52.182;5.404;2022-11-20T07:22:45;27.50;;;14.23;;
36009;SDS011;22076;52.182;5.404;2022-11-20T07:25:12;26.10;;;14.13;;
36009;SDS011;22076;52.182;5.404;2022-11-20T07:27:38;30.88;;;15.90;;
36009;SDS011;22076;52.182;5.404;2022-11-20T07:30:05;20.42;;;12.45;;
36009;SDS011;22076;52.182;5.404;2022-11-20T07:32:32;20.52;;;10.95;;
36009;SDS011;22076;52.182;5.404;2022-11-20T07:35:00;40.70;;;17.92;;
36009;SDS011;22076;52.182;5.404;2022-11-20T07:37:27;23.70;;;13.30;;
36009;SDS011;22076;52.182;5.404;2022-11-20T07:39:53;30.33;;;14.20;;
36009;SDS011;22076;52.182;5.404;2022-11-20T07:42:19;31.67;;;15.95;;
36009;SDS011;22076;52.182;5.404;2022-11-20T07:44:46;32.92;;;16.85;;
36009;SDS011;22076;52.182;5.404;2022-11-20T07:47:12;27.90;;;14.45;;
36009;SDS011;22076;52.182;5.404;2022-11-20T07:49:39;31.48;;;15.90;;
36009;SDS011;22076;52.182;5.404;2022-11-20T07:52:07;36.03;;;16.95;;
36009;SDS011;22076;52.182;5.404;2022-11-20T07:54:33;32.63;;;16.42;;
36009;SDS011;22076;52.182;5.404;2022-11-20T07:57:00;24.75;;;13.20;;
36009;SDS011;22076;52.182;5.404;2022-11-20T07:59:26;23.83;;;12.98;;
36009;SDS011;22076;52.182;5.404;2022-11-20T08:01:53;31.27;;;16.05;;
36009;SDS011;22076;52.182;5.404;2022-11-20T08:04:20;32.08;;;16.40;;
36009;SDS011;22076;52.182;5.404;2022-11-20T08:06:48;34.28;;;16.20;;
36009;SDS011;22076;52.182;5.404;2022-11-20T08:09:16;39.30;;;20.08;;
36009;SDS011;22076;52.182;5.404;2022-11-20T08:11:42;29.55;;;15.90;;
36009;SDS011;22076;52.182;5.404;2022-11-20T08:14:26;43.38;;;19.80;;
36009;SDS011;22076;52.182;5.404;2022-11-20T08:16:53;34.58;;;17.77;;
36009;SDS011;22076;52.182;5.404;2022-11-20T08:19:19;36.53;;;16.55;;
36009;SDS011;22076;52.182;5.404;2022-11-20T08:21:46;24.40;;;13.32;;
36009;SDS011;22076;52.182;5.404;2022-11-20T08:24:12;34.30;;;16.63;;
36009;SDS011;22076;52.182;5.404;2022-11-20T08:26:40;29.85;;;15.23;;
36009;SDS011;22076;52.182;5.404;2022-11-20T08:29:07;36.53;;;18.08;;
36009;SDS011;22076;52.182;5.404;2022-11-20T08:31:33;40.67;;;20.85;;
36009;SDS011;22076;52.182;5.404;2022-11-20T08:34:00;37.03;;;18.35;;
36009;SDS011;22076;52.182;5.404;2022-11-20T08:36:26;36.17;;;18.58;;
36009;SDS011;22076;52.182;5.404;2022-11-20T08:38:54;30.88;;;17.23;;
36009;SDS011;22076;52.182;5.404;2022-11-20T08:41:21;33.58;;;17.08;;
36009;SDS011;22076;52.182;5.404;2022-11-20T08:43:53;28.42;;;14.50;;
36009;SDS011;22076;52.182;5.404;2022-11-20T08:46:21;32.10;;;17.38;;
36009;SDS011;22076;52.182;5.404;2022-11-20T08:48:48;35.10;;;17.80;;
36009;SDS011;22076;52.182;5.404;2022-11-20T08:51:15;31.48;;;17.05;;
36009;SDS011;22076;52.182;5.404;2022-11-20T08:53:41;37.13;;;19.40;;
36009;SDS011;22076;52.182;5.404;2022-11-20T08:56:08;32.03;;;16.27;;
36009;SDS011;22076;52.182;5.404;2022-11-20T08:58:36;41.40;;;21.10;;
36009;SDS011;22076;52.182;5.404;2022-11-20T09:01:04;34.58;;;15.38;;
36009;SDS011;22076;52.182;5.404;2022-11-20T09:03:30;39.35;;;20.58;;
36009;SDS011;22076;52.182;5.404;2022-11-20T09:05:58;42.85;;;19.65;;
36009;SDS011;22076;52.182;5.404;2022-11-20T09:08:25;22.85;;;12.98;;
36009;SDS011;22076;52.182;5.404;2022-11-20T09:10:51;38.35;;;18.92;;
36009;SDS011;22076;52.182;5.404;2022-11-20T09:13:18;38.53;;;19.05;;
36009;SDS011;22076;52.182;5.404;2022-11-20T09:15:45;31.90;;;15.90;;
36009;SDS011;22076;52.182;5.404;2022-11-20T09:18:13;26.33;;;15.10;;
36009;SDS011;22076;52.182;5.404;2022-11-20T09:20:39;40.63;;;19.17;;
36009;SDS011;22076;52.182;5.404;2022-11-20T09:23:05;31.25;;;16.75;;
36009;SDS011;22076;52.182;5.404;2022-11-20T09:25:32;48.85;;;21.63;;
36009;SDS011;22076;52.182;5.404;2022-11-20T09:27:59;25.90;;;12.75;;
36009;SDS011;22076;52.182;5.404;2022-11-20T09:30:26;45.40;;;20.88;;
36009;SDS011;22076;52.182;5.404;2022-11-20T09:32:52;25.67;;;13.15;;
36009;SDS011;22076;52.182;5.404;2022-11-20T09:35:20;27.13;;;14.25;;
36009;SDS011;22076;52.182;5.404;2022-11-20T09:37:47;28.20;;;15.07;;
36009;SDS011;22076;52.182;5.404;2022-11-20T09:40:18;32.28;;;15.93;;
36009;SDS011;22076;52.182;5.404;2022-11-20T09:42:47;29.45;;;15.50;;
36009;SDS011;22076;52.182;5.404;2022-11-20T09:45:21;51.00;;;22.52;;
36009;SDS011;22076;52.182;5.404;2022-11-20T09:47:53;43.40;;;20.88;;
36009;SDS011;22076;52.182;5.404;2022-11-20T09:50:42;29.50;;;14.48;;
36009;SDS011;22076;52.182;5.404;2022-11-20T09:53:13;36.63;;;19.92;;
36009;SDS011;22076;52.182;5.404;2022-11-20T09:55:45;43.80;;;20.88;;
36009;SDS011;22076;52.182;5.404;2022-11-20T09:58:13;43.28;;;21.48;;
36009;SDS011;22076;52.182;5.404;2022-11-20T10:00:42;38.58;;;20.38;;
36009;SDS011;22076;52.182;5.404;2022-11-20T10:03:11;47.10;;;20.98;;
36009;SDS011;22076;52.182;5.404;2022-11-20T10:05:42;38.17;;;19.92;;
36009;SDS011;22076;52.182;5.404;2022-11-20T10:08:12;34.35;;;18.27;;
36009;SDS011;22076;52.182;5.404;2022-11-20T10:10:44;50.50;;;23.58;;
36009;SDS011;22076;52.182;5.404;2022-11-20T10:13:17;37.83;;;18.83;;
36009;SDS011;22076;52.182;5.404;2022-11-20T10:15:53;47.38;;;23.67;;
36009;SDS011;22076;52.182;5.404;2022-11-20T10:18:28;47.30;;;24.17;;
36009;SDS011;22076;52.182;5.404;2022-11-20T10:21:05;47.42;;;22.48;;
36009;SDS011;22076;52.182;5.404;2022-11-20T10:23:49;46.25;;;23.05;;
36009;SDS011;22076;52.182;5.404;2022-11-20T10:26:36;39.70;;;20.95;;
36009;SDS011;22076;52.182;5.404;2022-11-20T10:29:10;53.15;;;25.23;;
36009;SDS011;22076;52.182;5.404;2022-11-20T10:31:38;44.47;;;22.77;;
36009;SDS011;22076;52.182;5.404;2022-11-20T10:34:06;48.47;;;25.48;;
36009;SDS011;22076;52.182;5.404;2022-11-20T10:36:40;47.85;;;24.35;;
36009;SDS011;22076;52.182;5.404;2022-11-20T10:39:14;57.55;;;28.13;;
36009;SDS011;22076;52.182;5.404;2022-11-20T10:41:43;50.58;;;25.70;;
36009;SDS011;22076;52.182;5.404;2022-11-20T10:44:14;53.58;;;26.65;;
36009;SDS011;22076;52.182;5.404;2022-11-20T10:47:01;59.40;;;26.27;;
36009;SDS011;22076;52.182;5.404;2022-11-20T10:49:29;50.50;;;23.85;;
36009;SDS011;22076;52.182;5.404;2022-11-20T10:51:59;54.33;;;26.95;;
36009;SDS011;22076;52.182;5.404;2022-11-20T10:54:32;63.05;;;27.92;;
36009;SDS011;22076;52.182;5.404;2022-11-20T10:57:04;54.92;;;28.35;;
36009;SDS011;22076;52.182;5.404;2022-11-20T10:59:38;62.25;;;30.77;;
36009;SDS011;22076;52.182;5.404;2022-11-20T11:02:17;64.90;;;31.77;;
36009;SDS011;22076;52.182;5.404;2022-11-20T11:04:45;45.35;;;23.83;;
36009;SDS011;22076;52.182;5.404;2022-11-20T11:07:15;60.50;;;31.55;;
36009;SDS011;22076;52.182;5.404;2022-11-20T11:09:44;42.35;;;21.02;;
36009;SDS011;22076;52.182;5.404;2022-11-20T11:12:14;69.13;;;32.38;;
36009;SDS011;22076;52.182;5.404;2022-11-20T11:14:44;66.28;;;32.65;;
36009;SDS011;22076;52.182;5.404;2022-11-20T11:17:19;67.75;;;31.67;;
36009;SDS011;22076;52.182;5.404;2022-11-20T11:19:56;68.65;;;32.42;;
36009;SDS011;22076;52.182;5.404;2022-11-20T11:22:25;58.85;;;31.25;;
36009;SDS011;22076;52.182;5.404;2022-11-20T11:24:52;66.60;;;30.50;;
36009;SDS011;22076;52.182;5.404;2022-11-20T11:27:19;65.80;;;31.95;;
36009;SDS011;22076;52.182;5.404;2022-11-20T11:29:45;63.70;;;29.77;;
36009;SDS011;22076;52.182;5.404;2022-11-20T11:32:13;59.97;;;28.05;;
36009;SDS011;22076;52.182;5.404;2022-11-20T11:34:41;66.43;;;32.35;;
36009;SDS011;22076;52.182;5.404;2022-11-20T11:37:10;43.22;;;20.88;;
36009;SDS011;22076;52.182;5.404;2022-11-20T11:39:41;60.80;;;30.40;;
36009;SDS011;22076;52.182;5.404;2022-11-20T11:42:08;72.20;;;34.25;;
36009;SDS011;22076;52.182;5.404;2022-11-20T11:44:43;78.43;;;35.63;;
36009;SDS011;22076;52.182;5.404;2022-11-20T11:47:29;71.35;;;36.50;;
36009;SDS011;22076;52.182;5.404;2022-11-20T11:50:13;63.05;;;29.35;;
36009;SDS011;22076;52.182;5.404;2022-11-20T11:52:42;77.63;;;36.42;;
36009;SDS011;22076;52.182;5.404;2022-11-20T11:55:12;77.80;;;34.92;;
36009;SDS011;22076;52.182;5.404;2022-11-20T11:57:44;70.65;;;32.53;;
36009;SDS011;22076;52.182;5.404;2022-11-20T12:00:14;85.57;;;41.35;;
36009;SDS011;22076;52.182;5.404;2022-11-20T12:02:45;70.75;;;30.98;;
36009;SDS011;22076;52.182;5.404;2022-11-20T12:05:20;78.97;;;38.17;;
36009;SDS011;22076;52.182;5.404;2022-11-20T12:07:49;84.85;;;38.35;;
36009;SDS011;22076;52.182;5.404;2022-11-20T12:10:22;74.40;;;34.85;;
36009;SDS011;22076;52.182;5.404;2022-11-20T12:12:51;82.53;;;39.78;;
36009;SDS011;22076;52.182;5.404;2022-11-20T12:15:25;71.43;;;34.42;;
36009;SDS011;22076;52.182;5.404;2022-11-20T12:17:54;68.55;;;33.53;;
36009;SDS011;22076;52.182;5.404;2022-11-20T12:20:21;84.95;;;37.38;;
36009;SDS011;22076;52.182;5.404;2022-11-20T12:22:53;60.13;;;27.40;;
36009;SDS011;22076;52.182;5.404;2022-11-20T12:25:24;92.65;;;43.70;;
36009;SDS011;22076;52.182;5.404;2022-11-20T12:27:59;88.63;;;38.20;;
36009;SDS011;22076;52.182;5.404;2022-11-20T12:30:41;93.18;;;43.63;;
36009;SDS011;22076;52.182;5.404;2022-11-20T12:33:20;95.20;;;41.88;;
36009;SDS011;22076;52.182;5.404;2022-11-20T12:36:00;75.22;;;32.78;;
36009;SDS011;22076;52.182;5.404;2022-11-20T12:38:39;66.70;;;29.42;;
36009;SDS011;22076;52.182;5.404;2022-11-20T12:41:27;86.20;;;38.03;;
36009;SDS011;22076;52.182;5.404;2022-11-20T12:44:24;93.40;;;41.08;;
36009;SDS011;22076;52.182;5.404;2022-11-20T12:47:19;99.55;;;44.30;;
36009;SDS011;22076;52.182;5.404;2022-11-20T12:49:52;114.78;;;47.35;;
36009;SDS011;22076;52.182;5.404;2022-11-20T12:52:29;109.30;;;46.93;;
36009;SDS011;22076;52.182;5.404;2022-11-20T12:55:20;104.00;;;46.53;;
36009;SDS011;22076;52.182;5.404;2022-11-20T12:57:52;111.40;;;48.33;;
36009;SDS011;22076;52.182;5.404;2022-11-20T13:00:21;106.50;;;46.90;;
36009;SDS011;22076;52.182;5.404;2022-11-20T13:05:43;97.88;;;42.92;;
36009;SDS011;22076;52.182;5.404;2022-11-20T13:08:15;109.95;;;48.72;;
36009;SDS011;22076;52.182;5.404;2022-11-20T13:10:46;106.10;;;46.60;;
36009;SDS011;22076;52.182;5.404;2022-11-20T13:13:18;110.72;;;47.15;;
36009;SDS011;22076;52.182;5.404;2022-11-20T13:18:16;69.15;;;29.58;;
36009;SDS011;22076;52.182;5.404;2022-11-20T13:20:44;97.18;;;41.80;;
36009;SDS011;22076;52.182;5.404;2022-11-20T13:23:22;105.80;;;50.28;;
36009;SDS011;22076;52.182;5.404;2022-11-20T13:25:49;80.07;;;37.28;;
36009;SDS011;22076;52.182;5.404;2022-11-20T13:28:27;104.70;;;44.88;;
36009;SDS011;22076;52.182;5.404;2022-11-20T13:30:55;105.53;;;47.70;;
36009;SDS011;22076;52.182;5.404;2022-11-20T13:33:22;110.22;;;50.45;;
36009;SDS011;22076;52.182;5.404;2022-11-20T13:35:55;101.20;;;41.95;;
36009;SDS011;22076;52.182;5.404;2022-11-20T13:38:22;98.70;;;45.95;;
36009;SDS011;22076;52.182;5.404;2022-11-20T13:40:52;107.88;;;46.35;;
36009;SDS011;22076;52.182;5.404;2022-11-20T13:43:21;103.25;;;45.90;;
36009;SDS011;22076;52.182;5.404;2022-11-20T13:45:58;104.55;;;49.50;;
36009;SDS011;22076;52.182;5.404;2022-11-20T13:48:26;91.53;;;41.47;;
36009;SDS011;22076;52.182;5.404;2022-11-20T13:50:59;78.35;;;34.03;;
36009;SDS011;22076;52.182;5.404;2022-11-20T13:56:22;99.35;;;39.30;;
36009;SDS011;22076;52.182;5.404;2022-11-20T13:58:53;94.15;;;41.97;;
36009;SDS011;22076;52.182;5.404;2022-11-20T14:01:28;96.55;;;41.92;;
36009;SDS011;22076;52.182;5.404;2022-11-20T14:03:56;106.45;;;47.40;;
36009;SDS011;22076;52.182;5.404;2022-11-20T14:06:25;85.63;;;37.25;;
36009;SDS011;22076;52.182;5.404;2022-11-20T14:08:53;95.25;;;41.55;;
36009;SDS011;22076;52.182;5.404;2022-11-20T14:11:20;99.63;;;45.05;;
36009;SDS011;22076;52.182;5.404;2022-11-20T14:13:56;114.75;;;49.15;;
36009;SDS011;22076;52.182;5.404;2022-11-20T14:16:25;106.95;;;45.75;;
36009;SDS011;22076;52.182;5.404;2022-11-20T14:18:54;114.13;;;47.63;;
36009;SDS011;22076;52.182;5.404;2022-11-20T14:21:22;102.82;;;43.25;;
36009;SDS011;22076;52.182;5.404;2022-11-20T14:23:52;99.53;;;40.95;;
36009;SDS011;22076;52.182;5.404;2022-11-20T14:26:19;113.18;;;48.15;;
36009;SDS011;22076;52.182;5.404;2022-11-20T14:28:47;108.53;;;43.90;;
36009;SDS011;22076;52.182;5.404;2022-11-20T14:31:17;97.88;;;38.35;;
36009;SDS011;22076;52.182;5.404;2022-11-20T14:33:48;103.25;;;44.20;;
36009;SDS011;22076;52.182;5.404;2022-11-20T14:36:16;103.72;;;41.15;;
36009;SDS011;22076;52.182;5.404;2022-11-20T14:38:43;92.40;;;38.53;;